Darstellungsparameter: Aktuell verwendete Einstellungen:
Skalierung der Graphiken ... ?
xyx+y,   Skalierungsfaktor:      Skalierung: Modus: x, Faktor: 1
Darstellungszeitraum ... ?
Vom - - bis: - -   Zeitraum: 03.07.2008 - 03.07.2008
Min/Max/Avg-Anzeige ... ?
Zeige MMA aktuell
Zeige MMA Monat
Zeige MMA alles
Zeige --A aktuell
Zeige --A Monat
Zeige --A alles
Keine MMA-Anzeige
MMA:
Keine MMA-Graphiken
MMA-Basis: 03.07.2008 - 03.07.2008
Quicknavigation für Darstellung... ?
Tage:      1T, 2T, 3T, 5T -1T -2T -3T -5T +1T +2T +3T +5T
Wochen: 1W, 2W, 3W -1W -2W -3W +1W +2W +3W
Monate: 1M, 3M, 6M -1M -3M -6M +1M +3M +6M
Jahre:    1J, 3J, 5J, 10J -1J -3J -5J -10J +1J +3J +5J +10J
Nutze für die Darstellung ... ?
Originaldaten oder Mittelwerte auf ...
Stundenbasis Tagesbasis Wochenbasis
Monatsbasis Jahresbasis      Datenbasis: Original-Daten
Darstellen als:
Statistik (Auto) Statistik J:M      Darstellung:
Zur Graphik,    zurück zur Übersicht aller Sensoren.
 
Tabellarische Datenbersicht: ?
 
Sensor: Nr:Datum:Temp:Abs-Feuchte:Windchill:Wind:
Aussen-T/F 1 03-07-2008 00:11:02 22.7 C 11.92 g/m*3 22.7 C 0 km/h
2 03-07-2008 00:23:02 22.7 C 11.72 g/m*3 22.7 C 0 km/h
3 03-07-2008 00:35:02 22.5 C 11.58 g/m*3 22.5 C 0 km/h
4 03-07-2008 00:47:02 22.3 C 11.45 g/m*3 22.3 C 0 km/h
5 03-07-2008 00:59:02 21.6 C 11.76 g/m*3 21.6 C 0 km/h
6 03-07-2008 01:11:02 21.3 C 11.93 g/m*3 21.3 C 0 km/h
7 03-07-2008 01:23:02 21.3 C 12.12 g/m*3 21.3 C 0 km/h
8 03-07-2008 01:35:02 20.5 C 12.99 g/m*3 20.5 C 0 km/h
9 03-07-2008 01:47:02 20.4 C 13.27 g/m*3 20.4 C 0 km/h
10 03-07-2008 01:59:02 21 C 13.19 g/m*3 21 C 0 km/h
11 03-07-2008 02:11:02 21.2 C 12.6 g/m*3 21.2 C 0 km/h
12 03-07-2008 02:23:02 21.2 C 12.23 g/m*3 21.2 C 0 km/h
13 03-07-2008 02:35:02 21.2 C 11.86 g/m*3 21.2 C 0 km/h
14 03-07-2008 02:47:02 21.3 C 11.93 g/m*3 21.3 C 0 km/h
15 03-07-2008 02:59:02 21.3 C 11.93 g/m*3 21.3 C 0 km/h
16 03-07-2008 03:11:02 21.3 C 11.93 g/m*3 21.3 C 0 km/h
17 03-07-2008 03:23:02 20 C 13.13 g/m*3 20 C 0 km/h
18 03-07-2008 03:35:02 19.4 C 13.51 g/m*3 19.4 C 0 km/h
19 03-07-2008 03:47:02 19.7 C 13.41 g/m*3 19.7 C 0 km/h
20 03-07-2008 03:59:02 19.9 C 13.4 g/m*3 19.9 C 0 km/h
21 03-07-2008 04:11:03 19.9 C 13.4 g/m*3 19.9 C 0 km/h
22 03-07-2008 04:23:03 20 C 13.48 g/m*3 20 C 0 km/h
23 03-07-2008 04:35:03 19.8 C 13.32 g/m*3 19.8 C 0 km/h
24 03-07-2008 04:47:03 19.8 C 13.32 g/m*3 19.8 C 0 km/h
25 03-07-2008 04:59:03 19.5 C 13.09 g/m*3 19.5 C 0 km/h
Sensor: Nr:Datum:Temp:Abs-Feuchte:Windchill:Wind:
Aussen-T/F 26 03-07-2008 05:11:03 19.5 C 13.26 g/m*3 19.5 C 0 km/h
27 03-07-2008 05:23:03 19.3 C 13.1 g/m*3 19.3 C 0 km/h
28 03-07-2008 05:35:03 19.3 C 13.1 g/m*3 19.3 C 0 km/h
29 03-07-2008 05:47:03 19.5 C 13.26 g/m*3 19.5 C 0 km/h
30 03-07-2008 05:59:03 19.5 C 13.26 g/m*3 19.5 C 0 km/h
31 03-07-2008 06:11:03 19.4 C 13.18 g/m*3 19.4 C 0 km/h
32 03-07-2008 06:23:03 19.7 C 13.41 g/m*3 19.7 C 0 km/h
33 03-07-2008 06:35:02 19.9 C 13.57 g/m*3 19.9 C 0 km/h
34 03-07-2008 06:47:02 19.8 C 13.32 g/m*3 19.8 C 0 km/h
35 03-07-2008 06:59:02 20 C 13.13 g/m*3 20 C 0 km/h
36 03-07-2008 07:11:02 20.2 C 13.46 g/m*3 20.2 C 0 km/h
37 03-07-2008 07:23:02 20.6 C 13.42 g/m*3 20.6 C 0 km/h
38 03-07-2008 07:35:02 20.8 C 13.4 g/m*3 20.8 C 0 km/h
39 03-07-2008 07:47:02 20.6 C 12.71 g/m*3 20.6 C 0 km/h
40 03-07-2008 07:59:02 20.8 C 12.86 g/m*3 20.8 C 0 km/h
41 03-07-2008 08:11:02 21.5 C 12.63 g/m*3 21.5 C 0 km/h
42 03-07-2008 08:23:02 21.2 C 12.42 g/m*3 21.2 C 0 km/h
43 03-07-2008 08:35:02 21.4 C 12.56 g/m*3 21.4 C 0 km/h
44 03-07-2008 08:47:02 21.7 C 12.02 g/m*3 21.7 C 0 km/h
45 03-07-2008 08:59:02 21.2 C 11.68 g/m*3 21.2 C 0 km/h
46 03-07-2008 09:11:02 21.6 C 12.14 g/m*3 21.6 C 0 km/h
47 03-07-2008 09:23:02 22 C 12.03 g/m*3 22 C 0 km/h
48 03-07-2008 09:35:02 22.2 C 11.78 g/m*3 22.2 C 0 km/h
49 03-07-2008 09:47:02 22.6 C 11.85 g/m*3 22.6 C 0 km/h
50 03-07-2008 09:59:02 23.3 C 11.71 g/m*3 23.3 C 0 km/h
Sensor: Nr:Datum:Temp:Abs-Feuchte:Windchill:Wind:
Aussen-T/F 51 03-07-2008 10:11:02 23.3 C 11.71 g/m*3 23.3 C 0 km/h
52 03-07-2008 10:23:02 22.8 C 11.79 g/m*3 22.8 C 0 km/h
53 03-07-2008 10:35:03 22.7 C 11.92 g/m*3 22.7 C 0 km/h
54 03-07-2008 10:47:02 22.5 C 11.98 g/m*3 22.5 C 0 km/h
55 03-07-2008 10:59:02 22.7 C 12.12 g/m*3 22.7 C 0 km/h
56 03-07-2008 11:11:02 22.9 C 11.85 g/m*3 22.9 C 0 km/h
57 03-07-2008 11:23:02 23.1 C 11.78 g/m*3 23.1 C 0 km/h
58 03-07-2008 11:35:01 23 C 11.92 g/m*3 23 C 0 km/h
59 03-07-2008 11:47:02 23.8 C 11.83 g/m*3 23.8 C 0 km/h
60 03-07-2008 11:59:02 24.2 C 11.66 g/m*3 24.2 C 0 km/h
61 03-07-2008 12:11:01 23.5 C 11.84 g/m*3 23.5 C 0 km/h
62 03-07-2008 12:23:02 23.7 C 11.76 g/m*3 23.7 C 0 km/h
63 03-07-2008 12:35:01 23.7 C 11.76 g/m*3 23.7 C 0 km/h
64 03-07-2008 12:47:02 23.5 C 12.05 g/m*3 23.5 C 0 km/h
65 03-07-2008 12:59:02 23.3 C 12.55 g/m*3 23.3 C 0 km/h
66 03-07-2008 13:11:01 22.5 C 12.78 g/m*3 22.5 C 0 km/h
67 03-07-2008 13:23:02 23.4 C 13.67 g/m*3 23.4 C 0 km/h
68 03-07-2008 13:35:01 24.5 C 12.53 g/m*3 24.5 C 0 km/h
69 03-07-2008 13:47:02 25.1 C 11.57 g/m*3 25.1 C 0 km/h
70 03-07-2008 13:59:02 25.3 C 11.47 g/m*3 25.3 C 0 km/h
71 03-07-2008 14:11:02 25.7 C 11.01 g/m*3 25.7 C 0 km/h
72 03-07-2008 14:23:03 26.1 C 10.28 g/m*3 26.1 C 0 km/h
73 03-07-2008 14:35:02 26.1 C 10.53 g/m*3 26.1 C 0 km/h
74 03-07-2008 14:47:01 25.7 C 11.01 g/m*3 25.7 C 0 km/h
75 03-07-2008 14:59:01 23.9 C 11.03 g/m*3 23.9 C 0 km/h
Sensor: Nr:Datum:Temp:Abs-Feuchte:Windchill:Wind:
Aussen-T/F 76 03-07-2008 15:11:02 21.3 C 13.61 g/m*3 21.3 C 0 km/h
77 03-07-2008 15:23:01 20.2 C 13.99 g/m*3 20.2 C 0 km/h
78 03-07-2008 15:35:01 20 C 14.17 g/m*3 20 C 0 km/h
79 03-07-2008 15:47:01 20 C 14.34 g/m*3 20 C 0 km/h
80 03-07-2008 15:59:01 19.8 C 14.18 g/m*3 19.8 C 0 km/h
81 03-07-2008 16:11:02 19.9 C 14.26 g/m*3 19.9 C 0 km/h
82 03-07-2008 16:23:01 20.3 C 14.77 g/m*3 20.3 C 0 km/h
83 03-07-2008 16:35:02 20 C 14.52 g/m*3 20 C 0 km/h
84 03-07-2008 16:47:02 19.5 C 14.1 g/m*3 19.5 C 0 km/h
85 03-07-2008 16:59:02 17 C 12.01 g/m*3 17 C 0 km/h
86 03-07-2008 17:11:02 17 C 12.59 g/m*3 17 C 0 km/h
87 03-07-2008 17:23:02 17.4 C 13.19 g/m*3 17.4 C 0 km/h
88 03-07-2008 17:35:02 17.2 C 12.89 g/m*3 17.2 C 0 km/h
89 03-07-2008 17:47:02 16.8 C 12.44 g/m*3 16.8 C 0 km/h
90 03-07-2008 17:59:03 17.3 C 12.82 g/m*3 17.3 C 0 km/h
91 03-07-2008 18:11:01 17.8 C 13.05 g/m*3 17.8 C 0 km/h
92 03-07-2008 18:23:02 17.5 C 12.67 g/m*3 17.5 C 0 km/h
93 03-07-2008 18:35:02 17.5 C 12.82 g/m*3 17.5 C 0 km/h
94 03-07-2008 18:47:02 17.7 C 13.13 g/m*3 17.7 C 0 km/h
95 03-07-2008 18:59:02 17.7 C 13.13 g/m*3 17.7 C 0 km/h
96 03-07-2008 19:11:02 17.9 C 13.28 g/m*3 17.9 C 0 km/h
97 03-07-2008 19:23:02 17.7 C 12.82 g/m*3 17.7 C 0 km/h
98 03-07-2008 19:35:02 17.6 C 12.45 g/m*3 17.6 C 0 km/h
99 03-07-2008 19:47:02 17.6 C 12.6 g/m*3 17.6 C 0 km/h
100 03-07-2008 19:59:02 17.3 C 12.52 g/m*3 17.3 C 0 km/h
Sensor: Nr:Datum:Temp:Abs-Feuchte:Windchill:Wind:
Aussen-T/F 101 03-07-2008 20:11:02 17.1 C 12.52 g/m*3 17.1 C 0 km/h
102 03-07-2008 20:23:02 17.2 C 12.74 g/m*3 17.2 C 0 km/h
103 03-07-2008 20:35:02 17 C 12.44 g/m*3 17 C 0 km/h
104 03-07-2008 20:47:02 17.1 C 12.66 g/m*3 17.1 C 0 km/h
105 03-07-2008 20:59:02 17 C 12.73 g/m*3 17 C 0 km/h
106 03-07-2008 21:11:02 16.9 C 12.8 g/m*3 16.9 C 0 km/h
107 03-07-2008 21:23:02 16.8 C 12.72 g/m*3 16.8 C 0 km/h
108 03-07-2008 21:35:02 16.5 C 12.5 g/m*3 16.5 C 0 km/h
109 03-07-2008 21:47:02 16.4 C 12.42 g/m*3 16.4 C 0 km/h
110 03-07-2008 21:59:02 16 C 12.13 g/m*3 16 C 0 km/h
111 03-07-2008 22:12:02 15.6 C 11.97 g/m*3 15.6 C 0 km/h
112 03-07-2008 22:24:03 15.3 C 11.75 g/m*3 15.3 C 0 km/h
113 03-07-2008 22:36:03 15.5 C 12.03 g/m*3 15.5 C 0 km/h
114 03-07-2008 22:48:03 15.4 C 11.96 g/m*3 15.4 C 0 km/h
115 03-07-2008 23:00:03 15.3 C 11.88 g/m*3 15.3 C 0 km/h
116 03-07-2008 23:12:03 15.1 C 11.74 g/m*3 15.1 C 0 km/h
117 03-07-2008 23:24:03 15.2 C 11.81 g/m*3 15.2 C 0 km/h
118 03-07-2008 23:36:03 15.4 C 11.96 g/m*3 15.4 C 0 km/h
119 03-07-2008 23:48:03 15.4 C 11.96 g/m*3 15.4 C 0 km/h

Legende:
   Min
   Max


Maximal/Minimal-Werte vom 03.07.2008 - 03.07.2008

Sensor Min Max Avg
Temp
(Aussen-T/F)
15.1 °C
03-07-2008  23:12:03
26.1 °C
03-07-2008  14:23:03
20.19 °C
Abs-Feuchte
(Aussen-T/F)
10.28 g/m*3
03-07-2008  14:23:03
14.77 g/m*3
03-07-2008  16:23:01
12.44 g/m*3
Windchill
(Aussen-T/F)
15.1 C
03-07-2008  23:12:03
26.1 C
03-07-2008  14:23:03
20.02 C

Die Daten stammen von einer Davis Vantage Pro 2 Wetter-Station und werden unter Linux mit der Software wview2wettercgi und aufbereitet. Alle Angaben erfolgen ohne Gewähr für ihre Vollständigkeit oder Richtigkeit.
Kontakt: Rainer Krienke krienke@uni-koblenz.de . Meine Webseiten an der Uni Koblenz oder privat.
Version: $Revision: 0.78 $